Atlanta, Illinois
Current Conditions -  °F | °C
As of 6:15 PM on Monday 24 Nov 2014 (Local Time) from KAAA Reporting Station
Overcast Overcast  
Wind Chill: 28°   Ceiling: 2600
Heat Index: 35°   Visibility: 10mi
Dew Point: 28°   Wind: 8mph
Humidity: 75%   Direction: 260°W
Pressure: 29.82"   Gusts: NA
Location:  40.26°N, 89.23°W
Report Text: KAAA 250015Z AUTO 26007KT 220V280 10SM OVC026 02/M02 A2982 RMK AO2 T00161024
Loading
Personal Weather Stations






























Interactive Weather Map New forecast layout! Learn more

10-Day Weather Forecast

Advertisements
Track Severe Weather on mobile